Sea Sub — WDE5399 — position and weather

sailwx.info

Track history (hours):
 
Tides and Currents Weather Stations Pressure Air Temp Water Temp Dewpoint Dewpoint Depression Visibility Wind Speed Wind Dir Waves Ship Positions

Sea Sub

Owner: Sea Sub Systems, Inc., Indian Rocks Beach, FL. More information available from US FCC via Universal Licensing System and Coast Guard Vessel Documentation Center.

Last reported at 2017-Sep-25 14:50 UTC. Time now 2017-Sep-26 16:25 UTC.
Position N 27°46' W 082°32'.

Length 30 m.

MMSI: 367366150.

Date/timePositionNaut miles runAvg speedWind from/ knotsBaromVisibWave heightAir tempDewpointWater temp
2017-Sep-25 14:50N 27°46' W 082°32'617.3
2017-Sep-25 14:31N 27°50' W 082°27'611.9
2017-Sep-25 14:00N 27°55' W 082°26'2 3.2
2017-Sep-25 13:30N 27°57' W 082°27'0 0.0
2017-Sep-25 13:01N 27°57' W 082°27'0 0.0
2017-Sep-25 12:31N 27°57' W 082°27'2 3.7
2017-Sep-25 12:01N 27°55' W 082°26'1 1.1
2017-Sep-25 11:30N 27°56' W 082°26'3 5.9
2017-Sep-25 11:01N 27°53' W 082°27'  
2017-Sep-19 15:51N 27°46' W 082°31'617.1
2017-Sep-19 15:30N 27°51' W 082°27'5 9.5
2017-Sep-19 15:00N 27°55' W 082°26'1 1.9
2017-Sep-19 14:30N 27°55' W 082°27'1 2.4
2017-Sep-19 14:00N 27°56' W 082°26'1 2.4
2017-Sep-19 13:31N 27°55' W 082°27'0 0.0
2017-Sep-19 13:01N 27°55' W 082°27'0 0.0
2017-Sep-19 12:31N 27°55' W 082°27'0 0.4
2017-Sep-19 12:01N 27°55' W 082°27'1 2.6
2017-Sep-19 11:31N 27°56' W 082°26'4 7.7
2017-Sep-19 11:00N 27°52' W 082°27'  
2017-Sep-16 16:07N 27°45' W 082°32'217.2
2017-Sep-16 16:00N 27°47' W 082°30'816.8
2017-Sep-16 15:30N 27°54' W 082°26'2 3.2
2017-Sep-16 15:00N 27°56' W 082°26'0 0.0
2017-Sep-16 14:30N 27°56' W 082°26'0 0.0
2017-Sep-16 14:00N 27°56' W 082°26'0 0.0
2017-Sep-16 13:30N 27°56' W 082°26'1 2.8
2017-Sep-16 13:00N 27°57' W 082°27'0 0.0
2017-Sep-16 12:31N 27°57' W 082°27'1 2.8
2017-Sep-16 12:00N 27°56' W 082°26'0 0.0
2017-Sep-16 11:30N 27°56' W 082°26'3 6.1
2017-Sep-16 11:01N 27°53' W 082°27'  
Track history (hours):
 
Tides and Currents Weather Stations Pressure Air Temp Water Temp Dewpoint Dewpoint Depression Visibility Wind Speed Wind Dir Waves Ship Positions

Sea Sub

Owner: Sea Sub Systems, Inc., Indian Rocks Beach, FL. More information available from US FCC via Universal Licensing System and Coast Guard Vessel Documentation Center.

Last reported at 2017-Sep-25 14:50 UTC. Time now 2017-Sep-26 16:25 UTC.
Position N 27°46' W 082°32'.

Length 30 m.

MMSI: 367366150.

Date/timePositionNaut miles runAvg speedWind from/ knotsBaromVisibWave heightAir tempDewpointWater temp
2017-Sep-25 14:50N 27°46' W 082°32'617.3
2017-Sep-25 14:31N 27°50' W 082°27'611.9
2017-Sep-25 14:00N 27°55' W 082°26'2 3.2
2017-Sep-25 13:30N 27°57' W 082°27'0 0.0
2017-Sep-25 13:01N 27°57' W 082°27'0 0.0
2017-Sep-25 12:31N 27°57' W 082°27'2 3.7
2017-Sep-25 12:01N 27°55' W 082°26'1 1.1
2017-Sep-25 11:30N 27°56' W 082°26'3 5.9
2017-Sep-25 11:01N 27°53' W 082°27'  
2017-Sep-19 15:51N 27°46' W 082°31'617.1
2017-Sep-19 15:30N 27°51' W 082°27'5 9.5
2017-Sep-19 15:00N 27°55' W 082°26'1 1.9
2017-Sep-19 14:30N 27°55' W 082°27'1 2.4
2017-Sep-19 14:00N 27°56' W 082°26'1 2.4
2017-Sep-19 13:31N 27°55' W 082°27'0 0.0
2017-Sep-19 13:01N 27°55' W 082°27'0 0.0
2017-Sep-19 12:31N 27°55' W 082°27'0 0.4
2017-Sep-19 12:01N 27°55' W 082°27'1 2.6
2017-Sep-19 11:31N 27°56' W 082°26'4 7.7
2017-Sep-19 11:00N 27°52' W 082°27'  
2017-Sep-16 16:07N 27°45' W 082°32'217.2
2017-Sep-16 16:00N 27°47' W 082°30'816.8
2017-Sep-16 15:30N 27°54' W 082°26'2 3.2
2017-Sep-16 15:00N 27°56' W 082°26'0 0.0
2017-Sep-16 14:30N 27°56' W 082°26'0 0.0
2017-Sep-16 14:00N 27°56' W 082°26'0 0.0
2017-Sep-16 13:30N 27°56' W 082°26'1 2.8
2017-Sep-16 13:00N 27°57' W 082°27'0 0.0
2017-Sep-16 12:31N 27°57' W 082°27'1 2.8
2017-Sep-16 12:00N 27°56' W 082°26'0 0.0
2017-Sep-16 11:30N 27°56' W 082°26'3 6.1
2017-Sep-16 11:01N 27°53' W 082°27'  

Dump ship's entire track history